<?xml version="1.0" encoding="UTF-8" standalone="no" ?>
<gpx xmlns="http://www.topografix.com/GPX/1/1" xmlns:xsi="http://www.w3.org/2001/XMLSchema-instance" xsi:schemaLocation="http://www.topografix.com/GPX/1/1 http://www.topografix.com/GPX/1/1/gpx.xsd" version="1.1" creator="VisuGPX - https://www.visugpx.com">
  <metadata>
    <name>2019-10-31-46-Issudel -Puy l'évèque</name>
    <desc><![CDATA[Un circuit de 11km pour 200m de dénivelé positif. Seule difficulté : la longue montée du départ, raide et longue vous emmènera vers des paysages de collines couvertes de forets avant de redescendre entre vignes et bords de Lot]]></desc>
  </metadata>
  <trk>
    <name><![CDATA[10661247-Issudel -Puy l'évèque]]></name>
    <trkseg>
      <trkpt lat="44.49377" lon="1.13154">
        <ele>86</ele>
        <time>2019-10-28T17:45:26Z</time>
      </trkpt>
      <trkpt lat="44.49314" lon="1.13138">
        <ele>86</ele>
        <time>2019-10-28T17:46:51Z</time>
      </trkpt>
      <trkpt lat="44.49273" lon="1.13123">
        <ele>85</ele>
        <time>2019-10-28T17:47:48Z</time>
      </trkpt>
      <trkpt lat="44.49132" lon="1.13082">
        <ele>86</ele>
        <time>2019-10-28T17:51:00Z</time>
      </trkpt>
      <trkpt lat="44.48999" lon="1.13057">
        <ele>87</ele>
        <time>2019-10-28T17:53:59Z</time>
      </trkpt>
      <trkpt lat="44.48936" lon="1.12965">
        <ele>93</ele>
        <time>2019-10-28T17:56:01Z</time>
      </trkpt>
      <trkpt lat="44.4885" lon="1.12907">
        <ele>96</ele>
        <time>2019-10-28T17:58:08Z</time>
      </trkpt>
      <trkpt lat="44.48779" lon="1.12815">
        <ele>105</ele>
        <time>2019-10-28T18:00:17Z</time>
      </trkpt>
      <trkpt lat="44.48681" lon="1.12764">
        <ele>118</ele>
        <time>2019-10-28T18:02:37Z</time>
      </trkpt>
      <trkpt lat="44.48561" lon="1.12698">
        <ele>131</ele>
        <time>2019-10-28T18:05:29Z</time>
      </trkpt>
      <trkpt lat="44.48485" lon="1.12713">
        <ele>143</ele>
        <time>2019-10-28T18:07:11Z</time>
      </trkpt>
      <trkpt lat="44.48401" lon="1.1282">
        <ele>164</ele>
        <time>2019-10-28T18:09:42Z</time>
      </trkpt>
      <trkpt lat="44.48339" lon="1.12822">
        <ele>176</ele>
        <time>2019-10-28T18:11:05Z</time>
      </trkpt>
      <trkpt lat="44.4824" lon="1.12896">
        <ele>190</ele>
        <time>2019-10-28T18:13:35Z</time>
      </trkpt>
      <trkpt lat="44.48144" lon="1.12961">
        <ele>206</ele>
        <time>2019-10-28T18:15:57Z</time>
      </trkpt>
      <trkpt lat="44.4803" lon="1.12914">
        <ele>239</ele>
        <time>2019-10-28T18:18:36Z</time>
      </trkpt>
      <trkpt lat="44.48015" lon="1.12862">
        <ele>243</ele>
        <time>2019-10-28T18:19:29Z</time>
      </trkpt>
      <trkpt lat="44.47948" lon="1.12991">
        <ele>244</ele>
        <time>2019-10-28T18:22:01Z</time>
      </trkpt>
      <trkpt lat="44.47888" lon="1.13089">
        <ele>237</ele>
        <time>2019-10-28T18:24:04Z</time>
      </trkpt>
      <trkpt lat="44.47821" lon="1.12957">
        <ele>236</ele>
        <time>2019-10-28T18:26:38Z</time>
      </trkpt>
      <trkpt lat="44.47717" lon="1.12829">
        <ele>245</ele>
        <time>2019-10-28T18:29:43Z</time>
      </trkpt>
      <trkpt lat="44.47719" lon="1.12719">
        <ele>236</ele>
        <time>2019-10-28T18:31:28Z</time>
      </trkpt>
      <trkpt lat="44.47795" lon="1.12589">
        <ele>236</ele>
        <time>2019-10-28T18:34:08Z</time>
      </trkpt>
      <trkpt lat="44.47772" lon="1.12469">
        <ele>238</ele>
        <time>2019-10-28T18:36:06Z</time>
      </trkpt>
      <trkpt lat="44.4776" lon="1.12337">
        <ele>236</ele>
        <time>2019-10-28T18:38:13Z</time>
      </trkpt>
      <trkpt lat="44.47771" lon="1.12201">
        <ele>229</ele>
        <time>2019-10-28T18:40:23Z</time>
      </trkpt>
      <trkpt lat="44.47744" lon="1.12083">
        <ele>236</ele>
        <time>2019-10-28T18:42:21Z</time>
      </trkpt>
      <trkpt lat="44.47703" lon="1.12046">
        <ele>240</ele>
        <time>2019-10-28T18:43:26Z</time>
      </trkpt>
      <trkpt lat="44.47639" lon="1.12046">
        <ele>250</ele>
        <time>2019-10-28T18:44:52Z</time>
      </trkpt>
      <trkpt lat="44.47601" lon="1.12016">
        <ele>255</ele>
        <time>2019-10-28T18:45:50Z</time>
      </trkpt>
      <trkpt lat="44.47673" lon="1.11922">
        <ele>235</ele>
        <time>2019-10-28T18:48:01Z</time>
      </trkpt>
      <trkpt lat="44.47721" lon="1.11896">
        <ele>219</ele>
        <time>2019-10-28T18:49:10Z</time>
      </trkpt>
      <trkpt lat="44.47798" lon="1.11877">
        <ele>209</ele>
        <time>2019-10-28T18:50:54Z</time>
      </trkpt>
      <trkpt lat="44.47882" lon="1.11823">
        <ele>205</ele>
        <time>2019-10-28T18:52:57Z</time>
      </trkpt>
      <trkpt lat="44.47975" lon="1.11773">
        <ele>200</ele>
        <time>2019-10-28T18:55:10Z</time>
      </trkpt>
      <trkpt lat="44.48078" lon="1.11772">
        <ele>200</ele>
        <time>2019-10-28T18:57:28Z</time>
      </trkpt>
      <trkpt lat="44.48191" lon="1.11771">
        <ele>195</ele>
        <time>2019-10-28T18:59:59Z</time>
      </trkpt>
      <trkpt lat="44.48263" lon="1.11835">
        <ele>186</ele>
        <time>2019-10-28T19:01:52Z</time>
      </trkpt>
      <trkpt lat="44.4842" lon="1.1196">
        <ele>150</ele>
        <time>2019-10-28T19:05:53Z</time>
      </trkpt>
      <trkpt lat="44.4845" lon="1.1188">
        <ele>148</ele>
        <time>2019-10-28T19:07:19Z</time>
      </trkpt>
      <trkpt lat="44.48471" lon="1.1175">
        <ele>140</ele>
        <time>2019-10-28T19:09:26Z</time>
      </trkpt>
      <trkpt lat="44.4851" lon="1.11605">
        <ele>123</ele>
        <time>2019-10-28T19:11:54Z</time>
      </trkpt>
      <trkpt lat="44.48566" lon="1.11496">
        <ele>113</ele>
        <time>2019-10-28T19:14:02Z</time>
      </trkpt>
      <trkpt lat="44.48631" lon="1.114">
        <ele>109</ele>
        <time>2019-10-28T19:16:08Z</time>
      </trkpt>
      <trkpt lat="44.48675" lon="1.1133">
        <ele>108</ele>
        <time>2019-10-28T19:17:37Z</time>
      </trkpt>
      <trkpt lat="44.48767" lon="1.1124">
        <ele>108</ele>
        <time>2019-10-28T19:20:06Z</time>
      </trkpt>
      <trkpt lat="44.48828" lon="1.11298">
        <ele>109</ele>
        <time>2019-10-28T19:21:45Z</time>
      </trkpt>
      <trkpt lat="44.48893" lon="1.11304">
        <ele>110</ele>
        <time>2019-10-28T19:23:12Z</time>
      </trkpt>
      <trkpt lat="44.48953" lon="1.11205">
        <ele>110</ele>
        <time>2019-10-28T19:25:15Z</time>
      </trkpt>
      <trkpt lat="44.49044" lon="1.11226">
        <ele>111</ele>
        <time>2019-10-28T19:27:18Z</time>
      </trkpt>
      <trkpt lat="44.49135" lon="1.11246">
        <ele>110</ele>
        <time>2019-10-28T19:29:21Z</time>
      </trkpt>
      <trkpt lat="44.49166" lon="1.11118">
        <ele>111</ele>
        <time>2019-10-28T19:31:30Z</time>
      </trkpt>
      <trkpt lat="44.49211" lon="1.10989">
        <ele>109</ele>
        <time>2019-10-28T19:33:47Z</time>
      </trkpt>
      <trkpt lat="44.49259" lon="1.10868">
        <ele>109</ele>
        <time>2019-10-28T19:35:58Z</time>
      </trkpt>
      <trkpt lat="44.49284" lon="1.10804">
        <ele>108</ele>
        <time>2019-10-28T19:37:08Z</time>
      </trkpt>
      <trkpt lat="44.49426" lon="1.10856">
        <ele>96</ele>
        <time>2019-10-28T19:40:24Z</time>
      </trkpt>
      <trkpt lat="44.4951" lon="1.10908">
        <ele>95</ele>
        <time>2019-10-28T19:42:26Z</time>
      </trkpt>
      <trkpt lat="44.49583" lon="1.10929">
        <ele>96</ele>
        <time>2019-10-28T19:44:06Z</time>
      </trkpt>
      <trkpt lat="44.4959" lon="1.1108">
        <ele>98</ele>
        <time>2019-10-28T19:46:30Z</time>
      </trkpt>
      <trkpt lat="44.49612" lon="1.11197">
        <ele>97</ele>
        <time>2019-10-28T19:48:25Z</time>
      </trkpt>
      <trkpt lat="44.49665" lon="1.11301">
        <ele>98</ele>
        <time>2019-10-28T19:50:27Z</time>
      </trkpt>
      <trkpt lat="44.49696" lon="1.11424">
        <ele>98</ele>
        <time>2019-10-28T19:52:31Z</time>
      </trkpt>
      <trkpt lat="44.49725" lon="1.1155">
        <ele>97</ele>
        <time>2019-10-28T19:54:37Z</time>
      </trkpt>
      <trkpt lat="44.49759" lon="1.11671">
        <ele>97</ele>
        <time>2019-10-28T19:56:40Z</time>
      </trkpt>
      <trkpt lat="44.49795" lon="1.11788">
        <ele>96</ele>
        <time>2019-10-28T19:58:42Z</time>
      </trkpt>
      <trkpt lat="44.49874" lon="1.11863">
        <ele>95</ele>
        <time>2019-10-28T20:00:49Z</time>
      </trkpt>
      <trkpt lat="44.49967" lon="1.11917">
        <ele>94</ele>
        <time>2019-10-28T20:03:03Z</time>
      </trkpt>
      <trkpt lat="44.50044" lon="1.11973">
        <ele>93</ele>
        <time>2019-10-28T20:04:59Z</time>
      </trkpt>
      <trkpt lat="44.50055" lon="1.1181">
        <ele>93</ele>
        <time>2019-10-28T20:07:35Z</time>
      </trkpt>
      <trkpt lat="44.5011" lon="1.11826">
        <ele>92</ele>
        <time>2019-10-28T20:08:50Z</time>
      </trkpt>
      <trkpt lat="44.50114" lon="1.12003">
        <ele>92</ele>
        <time>2019-10-28T20:11:39Z</time>
      </trkpt>
      <trkpt lat="44.50195" lon="1.12078">
        <ele>92</ele>
        <time>2019-10-28T20:13:48Z</time>
      </trkpt>
      <trkpt lat="44.50282" lon="1.12139">
        <ele>91</ele>
        <time>2019-10-28T20:15:58Z</time>
      </trkpt>
      <trkpt lat="44.50366" lon="1.12203">
        <ele>90</ele>
        <time>2019-10-28T20:18:05Z</time>
      </trkpt>
      <trkpt lat="44.50455" lon="1.12274">
        <ele>89</ele>
        <time>2019-10-28T20:20:22Z</time>
      </trkpt>
      <trkpt lat="44.50542" lon="1.12352">
        <ele>86</ele>
        <time>2019-10-28T20:22:40Z</time>
      </trkpt>
      <trkpt lat="44.50668" lon="1.12459">
        <ele>85</ele>
        <time>2019-10-28T20:25:56Z</time>
      </trkpt>
      <trkpt lat="44.50663" lon="1.12538">
        <ele>85</ele>
        <time>2019-10-28T20:27:12Z</time>
      </trkpt>
      <trkpt lat="44.50748" lon="1.12603">
        <ele>82</ele>
        <time>2019-10-28T20:29:21Z</time>
      </trkpt>
      <trkpt lat="44.50857" lon="1.12673">
        <ele>81</ele>
        <time>2019-10-28T20:32:01Z</time>
      </trkpt>
      <trkpt lat="44.5076" lon="1.12931">
        <ele>84</ele>
        <time>2019-10-28T20:36:39Z</time>
      </trkpt>
      <trkpt lat="44.50678" lon="1.13068">
        <ele>81</ele>
        <time>2019-10-28T20:39:29Z</time>
      </trkpt>
      <trkpt lat="44.50547" lon="1.13161">
        <ele>80</ele>
        <time>2019-10-28T20:42:45Z</time>
      </trkpt>
      <trkpt lat="44.50487" lon="1.13265">
        <ele>82</ele>
        <time>2019-10-28T20:44:52Z</time>
      </trkpt>
      <trkpt lat="44.50411" lon="1.13364">
        <ele>82</ele>
        <time>2019-10-28T20:47:11Z</time>
      </trkpt>
      <trkpt lat="44.50335" lon="1.13463">
        <ele>83</ele>
        <time>2019-10-28T20:49:29Z</time>
      </trkpt>
      <trkpt lat="44.50242" lon="1.13512">
        <ele>81</ele>
        <time>2019-10-28T20:51:42Z</time>
      </trkpt>
      <trkpt lat="44.5017" lon="1.13557">
        <ele>82</ele>
        <time>2019-10-28T20:53:27Z</time>
      </trkpt>
      <trkpt lat="44.50127" lon="1.13456">
        <ele>84</ele>
        <time>2019-10-28T20:55:19Z</time>
      </trkpt>
      <trkpt lat="44.50035" lon="1.13475">
        <ele>84</ele>
        <time>2019-10-28T20:57:23Z</time>
      </trkpt>
      <trkpt lat="44.49944" lon="1.13501">
        <ele>82</ele>
        <time>2019-10-28T20:59:27Z</time>
      </trkpt>
      <trkpt lat="44.49841" lon="1.13515">
        <ele>83</ele>
        <time>2019-10-28T21:01:45Z</time>
      </trkpt>
      <trkpt lat="44.49747" lon="1.13527">
        <ele>82</ele>
        <time>2019-10-28T21:03:51Z</time>
      </trkpt>
      <trkpt lat="44.49653" lon="1.13539">
        <ele>82</ele>
        <time>2019-10-28T21:05:57Z</time>
      </trkpt>
      <trkpt lat="44.49549" lon="1.13547">
        <ele>83</ele>
        <time>2019-10-28T21:08:16Z</time>
      </trkpt>
      <trkpt lat="44.49456" lon="1.13566">
        <ele>84</ele>
        <time>2019-10-28T21:10:21Z</time>
      </trkpt>
      <trkpt lat="44.49355" lon="1.13556">
        <ele>84</ele>
        <time>2019-10-28T21:12:36Z</time>
      </trkpt>
      <trkpt lat="44.49249" lon="1.13535">
        <ele>83</ele>
        <time>2019-10-28T21:14:59Z</time>
      </trkpt>
      <trkpt lat="44.49258" lon="1.13421">
        <ele>83</ele>
        <time>2019-10-28T21:16:48Z</time>
      </trkpt>
      <trkpt lat="44.49269" lon="1.13295">
        <ele>83</ele>
        <time>2019-10-28T21:18:49Z</time>
      </trkpt>
      <trkpt lat="44.49289" lon="1.1314">
        <ele>85</ele>
        <time>2019-10-28T21:21:19Z</time>
      </trkpt>
      <trkpt lat="44.49374" lon="1.13163">
        <ele>86</ele>
        <time>2019-10-28T21:23:15Z</time>
      </trkpt>
    </trkseg>
  </trk>
</gpx>